KLMT

Crater Lake-Klamath Regional Airport

Klamath Falls, Oregon, USA
METAR KLMT 161353Z AUTO 00000KT 10SM CLR M07/M08 A3020 RMK AO2 SLP252 T10671083
Observed Flight Rules
Dec-16 @ 13:53 UTC (50 minutes ago) Visual Flight Rules
Wind Visibility Clouds
Calm 10 miles
  • Clear skies
Temperatures Readings
Current -7°C / 19°F
Dewpoint -8°C / 18°F
Humidity 93%
Altimeter 30.2" Hg
Pressure 1025.2 hPa
Elevation 1246
METAR KLMT 161353Z AUTO 00000KT 10SM CLR M07/M08 A3020 RMK AO2 SLP252 T10671083
Observed Flight Rules
Dec-16 @ 13:53 UTC
(50 minutes ago)
VFR
Wind Visibility
Calm 10 miles
Clouds
  • Clear skies
Temperature Dewpoint
-7°C / 19°F -8°C / 18°F
Humidity Altimeter Pressure
93% 30.2" Hg 1025.2 hPa